createdAt,value
2022-08-27T00:03:01.902Z,99832.41
2022-08-27T00:06:04.863Z,99828.34
2022-08-27T00:09:09.242Z,99825.25
2022-08-27T00:12:12.934Z,99829.12
2022-08-27T00:15:17.746Z,99828.78
2022-08-27T00:18:22.770Z,99835.03
2022-08-27T00:21:25.396Z,99835.28
2022-08-27T00:24:28.454Z,99837.38
2022-08-27T00:27:31.064Z,99838.31
2022-08-27T00:30:33.676Z,99834.34
2022-08-27T00:33:36.821Z,99838.34
2022-08-27T00:36:39.592Z,99839.44
2022-08-27T00:39:41.895Z,99834.37
2022-08-27T00:42:46.045Z,99847.84
2022-08-27T00:45:48.803Z,99847.84
2022-08-27T00:48:52.533Z,99845.47
2022-08-27T00:52:04.190Z,99855.44
2022-08-27T00:55:11.893Z,99860.16
2022-08-27T00:58:23.343Z,99861.94
2022-08-27T01:01:28.141Z,99865.66
2022-08-27T01:04:32.444Z,99863.41
2022-08-27T01:07:37.762Z,99864.63
2022-08-27T01:10:40.905Z,99865.72
2022-08-27T01:13:59.361Z,99861.38
2022-08-27T01:17:03.495Z,99865.09
2022-08-27T01:20:09.405Z,99870.38
2022-08-27T01:23:31.594Z,99871.56
2022-08-27T01:26:36.609Z,99870.28
2022-08-27T01:29:39.330Z,99878.78
2022-08-27T01:32:43.107Z,99877.94
2022-08-27T01:35:46.970Z,99869.44
2022-08-27T01:38:50.395Z,99867.84
2022-08-27T01:41:52.860Z,99867.28
2022-08-27T01:44:58.010Z,99865.84
2022-08-27T01:48:01.158Z,99860.81
2022-08-27T01:51:04.160Z,99866.09
2022-08-27T01:54:06.886Z,99882.19
2022-08-27T01:57:09.884Z,99871.75
2022-08-27T02:00:14.825Z,99874.75
2022-08-27T02:03:18.503Z,99877.63
2022-08-27T02:06:20.868Z,99874.78
2022-08-27T02:09:23.635Z,99873.06
2022-08-27T02:12:25.891Z,99877.84
2022-08-27T02:15:28.888Z,99872.34
2022-08-27T02:18:31.269Z,99879.50
2022-08-27T02:21:34.404Z,99881.44
2022-08-27T02:24:36.762Z,99877.97
2022-08-27T02:27:41.296Z,99875.81
2022-08-27T02:30:44.061Z,99865.97
2022-08-27T02:33:47.177Z,99860.94
2022-08-27T02:36:49.513Z,99869.91
2022-08-27T02:39:52.190Z,99864.41
2022-08-27T02:42:54.507Z,99862.59
2022-08-27T02:45:57.430Z,99867.28
2022-08-27T02:48:59.813Z,99858.28
2022-08-27T02:52:03.778Z,99856.84
2022-08-27T02:55:07.181Z,99863.41
2022-08-27T02:58:10.137Z,99873.25
2022-08-27T03:01:13.941Z,99877.81
2022-08-27T03:04:16.776Z,99862.44
2022-08-27T03:07:19.394Z,99869.41
2022-08-27T03:10:22.296Z,99868.78
2022-08-27T03:13:26.080Z,99871.66
2022-08-27T03:16:28.810Z,99873.69
2022-08-27T03:19:32.047Z,99876.69
2022-08-27T03:22:34.758Z,99872.25
2022-08-27T03:25:37.634Z,99870.59
2022-08-27T03:28:40.639Z,99871.53
2022-08-27T03:31:43.094Z,99868.78
2022-08-27T03:34:45.791Z,99872.84
2022-08-27T03:37:48.576Z,99872.75
2022-08-27T03:40:51.616Z,99869.47
2022-08-27T03:43:53.960Z,99867.81
2022-08-27T03:46:56.671Z,99869.69
2022-08-27T03:50:00.677Z,99874.59
2022-08-27T03:53:03.188Z,99871.97
2022-08-27T03:56:06.375Z,99863.31
2022-08-27T03:59:09.037Z,99862.41
2022-08-27T04:02:11.759Z,99874.81
2022-08-27T04:05:17.611Z,99872.28
2022-08-27T04:08:19.951Z,99881.03
2022-08-27T04:11:22.548Z,99872.09
2022-08-27T04:14:26.683Z,99881.56
2022-08-27T04:17:30.088Z,99879.66
2022-08-27T04:20:35.364Z,99880.38
2022-08-27T04:23:38.867Z,99878.72
2022-08-27T04:26:42.549Z,99885.41
2022-08-27T04:29:45.104Z,99883.50
2022-08-27T04:32:50.671Z,99891.19
2022-08-27T04:36:03.935Z,99888.78
2022-08-27T04:39:06.202Z,99885.22
2022-08-27T04:42:08.746Z,99891.22
2022-08-27T04:45:11.127Z,99883.59
2022-08-27T04:48:14.767Z,99877.59
2022-08-27T04:51:17.401Z,99876.88
2022-08-27T04:54:26.006Z,99883.94
2022-08-27T04:57:38.000Z,99880.63
2022-08-27T05:00:41.954Z,99877.63
2022-08-27T05:03:44.578Z,99882.88
2022-08-27T05:06:50.568Z,99882.06
2022-08-27T05:09:56.780Z,99884.09
2022-08-27T05:13:00.058Z,99886.84
2022-08-27T05:16:04.574Z,99889.38
2022-08-27T05:19:09.018Z,99894.16
2022-08-27T05:22:11.308Z,99897.59
2022-08-27T05:25:13.920Z,99905.84
2022-08-27T05:28:17.759Z,99894.06
2022-08-27T05:31:23.097Z,99893.84
2022-08-27T05:34:26.318Z,99898.88
2022-08-27T05:37:29.573Z,99904.75
2022-08-27T05:40:31.887Z,99899.75
2022-08-27T05:43:35.712Z,99896.88
2022-08-27T05:46:39.308Z,99896.66
2022-08-27T05:49:41.879Z,99892.28
2022-08-27T05:52:44.272Z,99887.84
2022-08-27T05:55:46.850Z,99888.00
2022-08-27T05:59:08.760Z,99887.09
2022-08-27T06:02:11.719Z,99888.53
2022-08-27T06:05:14.402Z,99881.59
2022-08-27T06:08:16.922Z,99887.53
2022-08-27T06:11:20.101Z,99895.16
2022-08-27T06:14:22.556Z,99896.53
2022-08-27T06:17:25.119Z,99896.66
2022-08-27T06:20:27.576Z,99893.03
2022-08-27T06:23:30.481Z,99905.22
2022-08-27T06:26:32.821Z,99905.84
2022-08-27T06:29:35.483Z,99911.13
2022-08-27T06:32:37.725Z,99911.13
2022-08-27T06:35:40.353Z,99915.88
2022-08-27T06:38:43.267Z,99914.81
2022-08-27T06:41:45.838Z,99925.37
2022-08-27T06:44:48.197Z,99917.25
2022-08-27T06:47:50.787Z,99917.69
2022-08-27T06:50:53.136Z,99921.62
2022-08-27T06:53:56.992Z,99921.69
2022-08-27T06:56:59.674Z,99922.81
2022-08-27T07:00:02.415Z,99921.22
2022-08-27T07:03:06.402Z,99927.00
2022-08-27T07:06:09.408Z,99939.28
2022-08-27T07:09:12.416Z,99936.12
2022-08-27T07:12:15.185Z,99931.84
2022-08-27T07:15:18.168Z,99937.75
2022-08-27T07:18:27.956Z,99935.41
2022-08-27T07:21:30.720Z,99934.06
2022-08-27T07:24:33.238Z,99939.91
2022-08-27T07:27:35.848Z,99942.28
2022-08-27T07:30:42.089Z,99942.06
2022-08-27T07:33:46.020Z,99943.69
2022-08-27T07:36:55.413Z,99938.25
2022-08-27T07:39:57.780Z,99946.97
2022-08-27T07:43:19.121Z,99940.53
2022-08-27T07:46:22.308Z,99942.81
2022-08-27T07:49:27.608Z,99949.13
2022-08-27T07:52:29.934Z,99940.16
2022-08-27T07:55:32.538Z,99944.47
2022-08-27T07:58:35.510Z,99936.34
2022-08-27T08:01:38.769Z,99938.22
2022-08-27T08:04:41.376Z,99933.59
2022-08-27T08:07:43.997Z,99927.03
2022-08-27T08:10:48.159Z,99932.63
2022-08-27T08:13:50.408Z,99939.34
2022-08-27T08:16:53.087Z,99933.37
2022-08-27T08:20:17.556Z,99930.31
2022-08-27T08:23:19.054Z,99931.91
2022-08-27T08:26:21.387Z,99936.06
2022-08-27T08:29:25.375Z,99938.13
2022-08-27T08:32:28.003Z,99940.22
2022-08-27T08:35:34.901Z,99936.59
2022-08-27T08:38:43.659Z,99934.66
2022-08-27T08:41:55.243Z,99933.66
2022-08-27T08:44:59.372Z,99929.72
2022-08-27T08:48:08.193Z,99937.41
2022-08-27T08:51:10.440Z,99936.28
2022-08-27T08:54:18.650Z,99937.81
2022-08-27T08:57:24.322Z,99941.06
2022-08-27T09:00:27.918Z,99932.44
2022-08-27T09:03:33.344Z,99935.31
2022-08-27T09:06:52.966Z,99931.91
2022-08-27T09:10:07.834Z,99928.94
2022-08-27T09:13:18.654Z,99927.25
2022-08-27T09:16:21.266Z,99929.22
2022-08-27T09:19:24.662Z,99921.47
2022-08-27T09:22:41.802Z,99920.19
2022-08-27T09:25:45.900Z,99910.28
2022-08-27T09:29:07.274Z,99903.00
2022-08-27T09:32:10.546Z,99904.59
2022-08-27T09:35:13.578Z,99899.56
2022-08-27T09:38:42.507Z,99899.69
2022-08-27T09:41:51.789Z,99898.84
2022-08-27T09:44:55.564Z,99896.94
2022-08-27T09:48:07.318Z,99901.84
2022-08-27T09:51:12.479Z,99897.97
2022-08-27T09:54:26.896Z,99901.94
2022-08-27T09:57:40.548Z,99894.44
2022-08-27T10:00:42.987Z,99888.66
2022-08-27T10:03:45.592Z,99892.19
2022-08-27T10:06:49.194Z,99892.78
2022-08-27T10:10:01.594Z,99894.22
2022-08-27T10:13:10.226Z,99893.03
2022-08-27T10:16:33.796Z,99884.88
2022-08-27T10:19:54.968Z,99885.06
2022-08-27T10:22:57.680Z,99890.69
2022-08-27T10:26:08.057Z,99890.12
2022-08-27T10:29:16.549Z,99892.19
2022-08-27T10:32:28.081Z,99891.50
2022-08-27T10:35:51.855Z,99891.47
2022-08-27T10:39:18.984Z,99891.16
2022-08-27T10:42:26.571Z,99889.94
2022-08-27T10:45:58.423Z,99888.06
2022-08-27T10:49:06.192Z,99882.84
2022-08-27T10:52:11.383Z,99889.81
2022-08-27T10:55:20.951Z,99887.28
2022-08-27T10:58:23.631Z,99889.44
2022-08-27T11:01:49.068Z,99886.37
2022-08-27T11:04:53.524Z,99879.06
2022-08-27T11:08:17.335Z,99874.22
2022-08-27T11:12:12.338Z,99874.38
2022-08-27T11:14:53.185Z,99866.78
2022-08-27T11:18:05.038Z,99856.72
2022-08-27T11:21:16.857Z,99866.28
2022-08-27T11:24:34.809Z,99869.09
2022-08-27T11:27:39.381Z,99868.25
2022-08-27T11:30:46.018Z,99867.50
2022-08-27T11:33:58.082Z,99858.56
2022-08-27T11:37:23.952Z,99859.91
2022-08-27T11:40:50.906Z,99851.31
2022-08-27T11:43:53.990Z,99848.69
2022-08-27T11:46:58.439Z,99851.75
2022-08-27T11:50:02.265Z,99847.72
2022-08-27T11:53:06.520Z,99849.22
2022-08-27T11:56:16.548Z,99843.69
2022-08-27T11:59:19.150Z,99839.25
2022-08-27T12:02:26.843Z,99833.47
2022-08-27T12:05:37.918Z,99833.41
2022-08-27T12:08:40.264Z,99827.06
2022-08-27T12:11:45.852Z,99829.81
2022-08-27T12:15:10.643Z,99817.78
2022-08-27T12:18:22.380Z,99812.56
2022-08-27T12:21:24.668Z,99805.47
2022-08-27T12:24:30.742Z,99812.75
2022-08-27T12:27:34.795Z,99805.31
2022-08-27T12:30:39.277Z,99801.66
2022-08-27T12:33:45.038Z,99795.19
2022-08-27T12:36:49.083Z,99792.22
2022-08-27T12:39:53.558Z,99793.88
2022-08-27T12:43:07.293Z,99792.12
2022-08-27T12:46:17.339Z,99785.41
2022-08-27T12:49:38.381Z,99778.84
2022-08-27T12:52:41.770Z,99779.75
2022-08-27T12:55:52.672Z,99780.00
2022-08-27T12:59:18.817Z,99768.88
2022-08-27T13:02:31.782Z,99771.41
2022-08-27T13:05:38.916Z,99763.06
2022-08-27T13:08:41.545Z,99761.25
2022-08-27T13:11:48.280Z,99765.78
2022-08-27T13:14:57.091Z,99758.22
2022-08-27T13:18:02.359Z,99765.59
2022-08-27T13:21:21.298Z,99764.72
2022-08-27T13:24:35.496Z,99773.56
2022-08-27T13:27:38.280Z,99769.47
2022-08-27T13:30:42.668Z,99766.53
2022-08-27T13:33:45.463Z,99766.63
2022-08-27T13:37:02.347Z,99758.72
2022-08-27T13:40:05.220Z,99763.63
2022-08-27T13:43:09.779Z,99764.25
2022-08-27T13:46:14.107Z,99764.78
2022-08-27T13:49:18.427Z,99759.00
2022-08-27T13:52:25.183Z,99759.22
2022-08-27T13:55:28.181Z,99763.09
2022-08-27T13:58:32.284Z,99762.84
2022-08-27T14:01:34.704Z,99756.41
2022-08-27T14:04:37.372Z,99767.41
2022-08-27T14:07:50.656Z,99761.06
2022-08-27T14:10:59.474Z,99753.53
2022-08-27T14:14:01.904Z,99756.91
2022-08-27T14:17:05.020Z,99751.47
2022-08-27T14:20:07.631Z,99758.13
2022-08-27T14:23:12.140Z,99751.56
2022-08-27T14:26:17.297Z,99753.03
2022-08-27T14:29:20.891Z,99753.81
2022-08-27T14:32:23.191Z,99750.50
2022-08-27T14:35:26.333Z,99738.84
2022-08-27T14:38:31.641Z,99740.56
2022-08-27T14:41:34.939Z,99748.00
2022-08-27T14:44:37.345Z,99735.97
2022-08-27T14:47:41.835Z,99740.13
2022-08-27T14:50:44.274Z,99740.94
2022-08-27T14:53:46.916Z,99745.72
2022-08-27T14:56:49.527Z,99745.69
2022-08-27T14:59:52.127Z,99744.84
2022-08-27T15:02:55.794Z,99745.50
2022-08-27T15:05:58.343Z,99751.09
2022-08-27T15:09:00.721Z,99749.91
2022-08-27T15:12:04.602Z,99751.34
2022-08-27T15:15:07.398Z,99751.81
2022-08-27T15:18:10.305Z,99749.56
2022-08-27T15:21:12.704Z,99755.16
2022-08-27T15:24:22.406Z,99755.78
2022-08-27T15:27:31.956Z,99750.31
2022-08-27T15:30:41.210Z,99761.00
2022-08-27T15:33:44.116Z,99759.25
2022-08-27T15:36:46.793Z,99755.03
2022-08-27T15:39:49.137Z,99756.38
2022-08-27T15:42:56.823Z,99747.75
2022-08-27T15:45:59.392Z,99760.97
2022-08-27T15:49:02.037Z,99759.44
2022-08-27T15:52:04.931Z,99757.78
2022-08-27T15:55:12.879Z,99764.69
2022-08-27T15:58:15.193Z,99764.19
2022-08-27T16:01:26.785Z,99765.97
2022-08-27T16:04:29.446Z,99765.13
2022-08-27T16:07:31.796Z,99760.28
2022-08-27T16:10:35.270Z,99753.59
2022-08-27T16:13:37.914Z,99761.78
2022-08-27T16:16:40.533Z,99764.53
2022-08-27T16:19:43.631Z,99762.53
2022-08-27T16:22:46.284Z,99761.91
2022-08-27T16:25:48.583Z,99767.47
2022-08-27T16:28:51.155Z,99771.50
2022-08-27T16:32:00.548Z,99768.22
2022-08-27T16:35:04.012Z,99765.37
2022-08-27T16:38:06.507Z,99770.34
2022-08-27T16:41:09.058Z,99769.44
2022-08-27T16:44:11.580Z,99770.66
2022-08-27T16:47:14.320Z,99768.16
2022-08-27T16:50:35.038Z,99766.22
2022-08-27T16:53:39.579Z,99775.44
2022-08-27T16:56:42.919Z,99771.81
2022-08-27T16:59:49.739Z,99778.97
2022-08-27T17:02:52.247Z,99773.06
2022-08-27T17:05:54.833Z,99774.69
2022-08-27T17:08:59.508Z,99777.59
2022-08-27T17:12:02.496Z,99776.28
2022-08-27T17:15:05.875Z,99786.53
2022-08-27T17:18:08.525Z,99790.34
2022-08-27T17:21:11.069Z,99791.81
2022-08-27T17:24:13.655Z,99805.09
2022-08-27T17:27:17.905Z,99806.81
2022-08-27T17:30:20.760Z,99817.19
2022-08-27T17:33:27.770Z,99817.06
2022-08-27T17:36:30.831Z,99817.91
2022-08-27T17:39:33.253Z,99823.97
2022-08-27T17:42:36.564Z,99840.50
2022-08-27T17:45:38.926Z,99840.66
2022-08-27T17:48:42.302Z,99839.66
2022-08-27T17:51:48.623Z,99854.66
2022-08-27T17:54:53.165Z,99865.53
2022-08-27T17:57:55.477Z,99856.84
2022-08-27T18:00:58.840Z,99858.19
2022-08-27T18:04:02.136Z,99858.84
2022-08-27T18:07:04.832Z,99855.81
2022-08-27T18:10:08.265Z,99862.66
2022-08-27T18:13:11.236Z,99862.44
2022-08-27T18:16:13.899Z,99861.91
2022-08-27T18:19:16.647Z,99867.09
2022-08-27T18:22:19.308Z,99864.94
2022-08-27T18:25:24.560Z,99873.75
2022-08-27T18:28:28.789Z,99868.84
2022-08-27T18:31:31.820Z,99869.53
2022-08-27T18:34:34.495Z,99881.97
2022-08-27T18:37:36.783Z,99878.44
2022-08-27T18:40:42.424Z,99880.78
2022-08-27T18:43:45.009Z,99880.22
2022-08-27T18:46:47.703Z,99882.50
2022-08-27T18:49:50.183Z,99883.78
2022-08-27T18:52:54.270Z,99876.44
2022-08-27T18:55:56.796Z,99882.44
2022-08-27T18:58:59.450Z,99881.38
2022-08-27T19:02:02.236Z,99886.19
2022-08-27T19:05:06.905Z,99889.22
2022-08-27T19:08:09.243Z,99888.22
2022-08-27T19:11:11.976Z,99892.34
2022-08-27T19:14:14.406Z,99894.94
2022-08-27T19:17:24.063Z,99889.16
2022-08-27T19:20:27.515Z,99892.19
2022-08-27T19:23:30.229Z,99881.03
2022-08-27T19:26:32.931Z,99881.47
2022-08-27T19:29:35.518Z,99877.00
2022-08-27T19:32:37.895Z,99870.84
2022-08-27T19:35:42.227Z,99867.38
2022-08-27T19:38:45.370Z,99870.97
2022-08-27T19:41:48.050Z,99875.41
2022-08-27T19:44:50.403Z,99870.56
2022-08-27T19:47:53.124Z,99872.66
2022-08-27T19:50:55.969Z,99864.47
2022-08-27T19:53:58.638Z,99872.28
2022-08-27T19:57:00.886Z,99882.56
2022-08-27T20:00:04.293Z,99887.00
2022-08-27T20:03:11.840Z,99880.59
2022-08-27T20:06:14.572Z,99891.03
2022-08-27T20:09:18.501Z,99897.44
2022-08-27T20:12:21.795Z,99894.00
2022-08-27T20:15:24.531Z,99898.66
2022-08-27T20:18:27.734Z,99902.16
2022-08-27T20:21:30.354Z,99904.22
2022-08-27T20:24:32.976Z,99908.06
2022-08-27T20:27:35.493Z,99911.66
2022-08-27T20:30:40.020Z,99904.97
2022-08-27T20:33:42.421Z,99902.63
2022-08-27T20:36:45.424Z,99897.38
2022-08-27T20:39:48.312Z,99897.25
2022-08-27T20:42:51.054Z,99898.16
2022-08-27T20:45:53.385Z,99899.22
2022-08-27T20:48:56.530Z,99904.97
2022-08-27T20:52:03.077Z,99907.34
2022-08-27T20:55:07.113Z,99901.50
2022-08-27T20:58:27.888Z,99912.13
2022-08-27T21:01:31.512Z,99917.03
2022-08-27T21:04:38.188Z,99915.91
2022-08-27T21:07:40.984Z,99923.78
2022-08-27T21:10:44.944Z,99934.00
2022-08-27T21:13:56.043Z,99932.16
2022-08-27T21:16:59.626Z,99921.22
2022-08-27T21:20:02.659Z,99923.63
2022-08-27T21:23:05.110Z,99919.31
2022-08-27T21:26:10.052Z,99928.28
2022-08-27T21:29:13.565Z,99926.31
2022-08-27T21:32:16.897Z,99926.06
2022-08-27T21:35:19.521Z,99931.38
2022-08-27T21:38:22.176Z,99933.63
2022-08-27T21:41:25.065Z,99940.03
2022-08-27T21:44:28.136Z,99940.87
2022-08-27T21:47:30.569Z,99940.56
2022-08-27T21:50:33.236Z,99939.87
2022-08-27T21:53:35.772Z,99947.03
2022-08-27T21:56:38.360Z,99948.84
2022-08-27T21:59:43.116Z,99944.66
2022-08-27T22:02:45.735Z,99946.75
2022-08-27T22:05:49.233Z,99933.06
2022-08-27T22:08:51.575Z,99939.63
2022-08-27T22:11:54.663Z,99942.72
2022-08-27T22:14:56.947Z,99939.78
2022-08-27T22:18:00.057Z,99936.72
2022-08-27T22:21:03.122Z,99937.81
2022-08-27T22:24:05.878Z,99930.25
2022-08-27T22:27:08.257Z,99929.84
2022-08-27T22:30:11.509Z,99927.59
2022-08-27T22:33:14.223Z,99933.59
2022-08-27T22:36:16.843Z,99938.06
2022-08-27T22:39:19.180Z,99939.91
2022-08-27T22:42:21.928Z,99933.91
2022-08-27T22:45:24.741Z,99933.47
2022-08-27T22:48:27.471Z,99925.63
2022-08-27T22:51:29.932Z,99925.34
2022-08-27T22:54:32.526Z,99926.34
2022-08-27T22:57:35.664Z,99925.22
2022-08-27T23:00:39.009Z,99924.50
2022-08-27T23:03:41.412Z,99934.13
2022-08-27T23:06:44.169Z,99931.91
2022-08-27T23:09:46.555Z,99932.59
2022-08-27T23:12:49.164Z,99938.75
2022-08-27T23:15:51.638Z,99939.69
2022-08-27T23:18:54.554Z,99939.97
2022-08-27T23:21:59.373Z,99943.91
2022-08-27T23:25:20.591Z,99939.03
2022-08-27T23:28:23.494Z,99941.69
2022-08-27T23:31:26.305Z,99946.16
2022-08-27T23:34:28.608Z,99946.13
2022-08-27T23:37:32.002Z,99944.16
2022-08-27T23:40:34.387Z,99938.88
2022-08-27T23:43:37.040Z,99936.03
2022-08-27T23:46:39.658Z,99942.31
2022-08-27T23:49:43.417Z,99947.87
2022-08-27T23:52:45.748Z,99977.03
2022-08-27T23:55:48.312Z,100014.72
2022-08-27T23:58:50.632Z,100001.53
